Time;durP1;ratioP1;P1;durP2;ratioP2;P2;SDS_P1;SDS_P2;PMS_P1;PMS_P2;Temp;Humidity;BMP_temperature;BMP_pressure;BME280_temperature;BME280_humidity;BME280_pressure;Samples;Min_cycle;Max_cycle;Signal;HPM_P1;HPM_P2
2023/06/29 00:00:25;;;;;;;27.20;21.70;;;19.70;99.90;;;;;;4739423;30;20031;-89
2023/06/29 00:02:52;;;;;;;28.73;21.73;;;19.70;99.90;;;;;;4771467;30;20071;-89
2023/06/29 00:05:21;;;;;;;29.10;22.27;;;19.70;99.90;;;;;;4757672;30;20059;-88
2023/06/29 00:07:50;;;;;;;29.63;21.75;;;19.70;99.90;;;;;;4772263;30;20043;-89
2023/06/29 00:10:17;;;;;;;29.58;21.83;;;19.70;99.90;;;;;;4757394;30;20435;-89
2023/06/29 00:12:43;;;;;;;29.98;21.98;;;19.70;99.90;;;;;;4787123;30;20048;-89
2023/06/29 00:15:09;;;;;;;32.72;23.23;;;19.70;99.90;;;;;;4757372;30;20083;-89
2023/06/29 00:17:35;;;;;;;32.45;23.92;;;19.70;99.90;;;;;;4742702;30;20099;-89
2023/06/29 00:20:09;;;;;;;31.05;22.40;;;19.70;99.90;;;;;;4757506;30;20333;-88
2023/06/29 00:22:35;;;;;;;36.28;22.70;;;19.70;99.90;;;;;;4757218;30;20080;-89
2023/06/29 00:25:02;;;;;;;31.13;22.00;;;19.60;99.90;;;;;;4728477;30;20047;-89
2023/06/29 00:27:28;;;;;;;31.55;22.83;;;19.60;99.90;;;;;;4728542;30;20036;-89
2023/06/29 00:29:54;;;;;;;29.02;23.20;;;19.60;99.90;;;;;;4772412;30;20032;-89
2023/06/29 00:32:23;;;;;;;27.17;21.52;;;19.60;99.90;;;;;;4743280;30;20448;-89
2023/06/29 00:34:49;;;;;;;28.65;21.58;;;19.60;99.90;;;;;;4758202;30;20040;-89
2023/06/29 00:37:15;;;;;;;31.17;22.20;;;19.70;99.90;;;;;;4743110;30;20101;-89
2023/06/29 00:39:41;;;;;;;31.85;22.70;;;19.70;99.90;;;;;;4757690;30;20399;-89
2023/06/29 00:42:08;;;;;;;28.42;22.13;;;19.60;99.90;;;;;;4742684;30;20130;-89
2023/06/29 00:44:34;;;;;;;29.65;21.35;;;19.70;99.90;;;;;;4772275;30;20036;-90
2023/06/29 00:47:00;;;;;;;29.08;21.27;;;19.70;99.90;;;;;;4728533;30;20036;-89
2023/06/29 00:49:27;;;;;;;29.48;20.90;;;19.70;99.90;;;;;;4757194;30;20054;-90
2023/06/29 00:51:54;;;;;;;30.92;21.08;;;19.70;99.90;;;;;;4742614;30;20063;-89
2023/06/29 00:54:22;;;;;;;33.92;22.80;;;19.60;99.90;;;;;;4728008;30;20073;-89
2023/06/29 00:56:49;;;;;;;29.65;22.15;;;19.60;99.90;;;;;;4742934;30;20047;-90
2023/06/29 00:59:16;;;;;;;30.20;21.73;;;19.70;99.90;;;;;;4742521;30;20107;-89
2023/06/29 01:01:45;;;;;;;31.75;21.92;;;19.60;99.90;;;;;;4727872;30;20417;-89
2023/06/29 01:04:24;;;;;;;32.42;22.55;;;19.60;99.90;;;;;;4742433;30;20329;-89
2023/06/29 01:07:00;;;;;;;31.90;22.80;;;19.70;99.90;;;;;;4742426;30;20486;-89
2023/06/29 01:09:28;;;;;;;29.27;23.55;;;19.60;99.90;;;;;;4757405;30;20031;-89
2023/06/29 01:11:57;;;;;;;34.63;23.60;;;19.60;99.90;;;;;;4730387;30;20036;-89
2023/06/29 01:14:55;;;;;;;32.38;22.38;;;19.60;99.90;;;;;;4790185;30;20433;-89
2023/06/29 01:17:25;;;;;;;30.33;21.40;;;19.60;99.90;;;;;;4760239;30;20100;-89
2023/06/29 01:19:52;;;;;;;36.75;24.80;;;19.50;99.90;;;;;;4730997;30;20044;-90
2023/06/29 01:22:28;;;;;;;35.25;24.27;;;19.50;99.90;;;;;;4730308;30;20060;-89
2023/06/29 01:24:56;;;;;;;35.67;24.67;;;19.50;99.90;;;;;;4760050;30;20059;-89
2023/06/29 01:27:22;;;;;;;38.45;24.65;;;19.50;99.90;;;;;;4745239;30;20071;-89
2023/06/29 01:29:53;;;;;;;36.88;24.88;;;19.50;99.90;;;;;;4775880;30;20122;-89
2023/06/29 01:32:19;;;;;;;33.65;25.20;;;19.50;99.90;;;;;;4789656;30;20044;-89
2023/06/29 01:34:45;;;;;;;34.72;24.65;;;19.50;99.90;;;;;;4774835;30;20036;-88
2023/06/29 01:37:21;;;;;;;38.25;26.83;;;19.50;99.90;;;;;;4789670;30;20039;-89
2023/06/29 01:39:53;;;;;;;36.05;26.20;;;19.50;99.90;;;;;;4746744;30;20048;-88
2023/06/29 01:42:21;;;;;;;38.05;26.90;;;19.50;99.90;;;;;;4775115;30;20348;-89
2023/06/29 01:44:48;;;;;;;36.65;26.08;;;19.50;99.90;;;;;;4745484;30;20043;-89
2023/06/29 01:47:17;;;;;;;35.63;24.92;;;19.50;99.90;;;;;;4759905;30;20050;-88
2023/06/29 01:49:45;;;;;;;35.35;25.48;;;19.50;99.90;;;;;;4732702;30;20431;-89
2023/06/29 01:52:12;;;;;;;35.38;24.73;;;19.50;99.90;;;;;;4761921;30;20039;-88
2023/06/29 01:54:38;;;;;;;43.03;26.88;;;19.50;99.90;;;;;;4760307;30;20199;-89
2023/06/29 01:57:05;;;;;;;38.75;26.67;;;19.50;99.90;;;;;;4759822;30;20146;-88
2023/06/29 01:59:31;;;;;;;38.85;26.60;;;19.50;99.90;;;;;;4774639;30;20047;-89
2023/06/29 02:01:57;;;;;;;33.83;26.80;;;19.50;99.90;;;;;;4759568;30;20039;-89
2023/06/29 02:04:23;;;;;;;38.00;26.65;;;19.50;99.90;;;;;;4730400;30;20333;-89
2023/06/29 02:06:50;;;;;;;37.47;28.20;;;19.50;99.90;;;;;;4759471;30;20040;-89
2023/06/29 02:09:16;;;;;;;38.38;28.38;;;19.50;99.90;;;;;;4744870;30;20032;-88
2023/06/29 02:11:42;;;;;;;42.30;29.30;;;19.50;99.90;;;;;;4744810;30;20035;-89
2023/06/29 02:14:08;;;;;;;42.35;28.88;;;19.50;99.90;;;;;;4730304;30;20047;-89
2023/06/29 02:16:37;;;;;;;37.70;27.17;;;19.50;99.90;;;;;;4744538;30;20478;-89
2023/06/29 02:19:04;;;;;;;42.40;29.33;;;19.40;99.90;;;;;;4744639;30;20039;-89
2023/06/29 02:21:32;;;;;;;48.78;30.05;;;19.50;99.90;;;;;;4759099;30;20349;-89
2023/06/29 02:24:02;;;;;;;36.10;27.92;;;19.50;99.90;;;;;;4730208;30;20185;-89
2023/06/29 02:26:28;;;;;;;40.67;30.05;;;19.50;99.90;;;;;;4744555;30;20046;-89
2023/06/29 02:28:58;;;;;;;38.85;28.65;;;19.50;99.90;;;;;;4758912;30;20031;-88
2023/06/29 02:31:27;;;;;;;41.10;29.63;;;19.50;99.90;;;;;;4744396;30;20130;-88
2023/06/29 02:33:53;;;;;;;40.33;28.73;;;19.50;99.90;;;;;;4744558;30;20061;-89
2023/06/29 02:36:21;;;;;;;45.95;29.95;;;19.50;99.90;;;;;;4730050;30;20505;-89
2023/06/29 02:38:51;;;;;;;43.83;29.88;;;19.50;99.90;;;;;;4744319;30;20362;-89
2023/06/29 02:41:20;;;;;;;41.08;28.98;;;19.50;99.90;;;;;;4744835;30;20044;-88
2023/06/29 02:43:46;;;;;;;35.53;24.95;;;19.50;99.90;;;;;;4744348;30;20032;-89
2023/06/29 02:46:12;;;;;;;42.30;27.10;;;19.40;99.90;;;;;;4729891;30;20047;-88
2023/06/29 02:48:38;;;;;;;36.35;25.58;;;19.50;99.90;;;;;;4744341;30;20067;-89
2023/06/29 02:51:11;;;;;;;38.80;26.00;;;19.50;99.90;;;;;;4758772;30;20039;-88
2023/06/29 02:53:38;;;;;;;33.97;24.15;;;19.50;99.90;;;;;;4744599;30;20043;-88
2023/06/29 02:56:04;;;;;;;36.03;24.20;;;19.50;99.90;;;;;;4701177;30;20047;-89
2023/06/29 02:58:35;;;;;;;32.78;23.83;;;19.50;99.90;;;;;;4744541;30;20138;-90
2023/06/29 03:01:04;;;;;;;33.20;24.13;;;19.50;99.90;;;;;;4730207;30;20046;-89
2023/06/29 03:03:30;;;;;;;31.42;22.63;;;19.50;99.90;;;;;;4744197;30;20036;-89
2023/06/29 03:05:56;;;;;;;31.60;21.85;;;19.40;99.90;;;;;;4758397;30;20039;-89
2023/06/29 03:08:28;;;;;;;33.03;22.65;;;19.50;99.90;;;;;;4743890;30;20064;-89
2023/06/29 03:10:57;;;;;;;29.33;22.05;;;19.40;99.90;;;;;;4730024;30;20437;-89
2023/06/29 03:13:25;;;;;;;27.77;21.13;;;19.50;99.90;;;;;;4743544;30;20112;-88
2023/06/29 03:15:51;;;;;;;28.10;21.88;;;19.40;99.90;;;;;;4744064;30;20107;-89
2023/06/29 03:18:17;;;;;;;31.98;22.70;;;19.40;99.90;;;;;;4743523;30;20043;-89
2023/06/29 03:20:43;;;;;;;28.63;21.00;;;19.50;99.90;;;;;;4729113;30;20039;-89
2023/06/29 03:23:09;;;;;;;32.53;21.88;;;19.40;99.90;;;;;;4743184;30;20048;-89
2023/06/29 03:25:35;;;;;;;29.10;21.38;;;19.40;99.90;;;;;;4729352;30;20282;-89
2023/06/29 03:28:01;;;;;;;27.25;20.58;;;19.40;99.90;;;;;;4757876;30;20035;-89
2023/06/29 03:30:30;;;;;;;26.60;21.58;;;19.40;99.90;;;;;;4743738;30;20078;-88
2023/06/29 03:32:58;;;;;;;30.77;20.45;;;19.30;99.90;;;;;;4758310;30;20427;-88
2023/06/29 03:35:27;;;;;;;27.27;19.58;;;19.40;99.90;;;;;;4757246;30;20044;-89
2023/06/29 03:37:53;;;;;;;29.95;21.08;;;19.40;99.90;;;;;;4743220;30;20447;-89
2023/06/29 03:40:20;;;;;;;29.30;20.60;;;19.40;99.90;;;;;;4772664;30;20071;-89
2023/06/29 03:42:46;;;;;;;30.35;21.48;;;19.40;99.90;;;;;;4743139;30;20040;-89
2023/06/29 03:45:12;;;;;;;31.83;21.88;;;19.40;99.90;;;;;;4758339;30;20036;-89
2023/06/29 03:47:38;;;;;;;32.03;21.75;;;19.40;99.90;;;;;;4743337;30;20044;-88
2023/06/29 03:50:07;;;;;;;30.35;21.38;;;19.40;99.90;;;;;;4757668;30;20085;-89
2023/06/29 03:52:33;;;;;;;31.00;22.17;;;19.40;99.90;;;;;;4772629;30;20109;-89
2023/06/29 03:54:59;;;;;;;28.80;21.48;;;19.40;99.90;;;;;;4743158;30;20338;-88
2023/06/29 03:57:25;;;;;;;32.67;21.98;;;19.40;99.90;;;;;;4728569;30;20044;-89
2023/06/29 03:59:51;;;;;;;29.73;22.50;;;19.40;99.90;;;;;;4728935;30;20039;-89
2023/06/29 04:02:19;;;;;;;28.88;22.00;;;19.40;99.90;;;;;;4728772;30;20109;-89
2023/06/29 04:04:45;;;;;;;31.92;21.95;;;19.40;99.90;;;;;;4743030;30;20047;-88
2023/06/29 04:07:11;;;;;;;30.20;21.40;;;19.40;99.90;;;;;;4758021;30;20067;-88
2023/06/29 04:09:39;;;;;;;28.20;21.60;;;19.40;99.90;;;;;;4742924;30;20039;-88
2023/06/29 04:12:06;;;;;;;30.65;21.52;;;19.40;99.90;;;;;;4742866;30;20044;-88
2023/06/29 04:14:32;;;;;;;29.48;22.02;;;19.40;99.90;;;;;;4743171;30;20114;-88
2023/06/29 04:16:58;;;;;;;30.45;21.40;;;19.40;99.90;;;;;;4728332;30;20451;-89
2023/06/29 04:19:26;;;;;;;26.75;21.17;;;19.40;99.90;;;;;;4773201;30;20039;-89
2023/06/29 04:21:52;;;;;;;28.83;20.30;;;19.40;99.90;;;;;;4742589;30;20500;-89
2023/06/29 04:24:18;;;;;;;29.20;20.75;;;19.40;99.90;;;;;;4742805;30;20039;-90
2023/06/29 04:26:46;;;;;;;29.50;22.15;;;19.40;99.90;;;;;;4714352;30;20036;-88
2023/06/29 04:29:12;;;;;;;29.17;22.02;;;19.40;99.90;;;;;;4742455;30;20039;-89
2023/06/29 04:31:38;;;;;;;30.00;21.67;;;19.50;99.90;;;;;;4727954;30;20046;-88
2023/06/29 04:34:04;;;;;;;33.13;22.23;;;19.40;99.90;;;;;;4757100;30;20497;-89
2023/06/29 04:36:31;;;;;;;28.55;22.13;;;19.50;99.90;;;;;;4757269;30;20123;-89
2023/06/29 04:38:57;;;;;;;29.15;21.83;;;19.50;99.90;;;;;;4742822;30;20039;-89
2023/06/29 04:41:31;;;;;;;32.00;23.45;;;19.50;99.90;;;;;;4728104;30;20454;-89
2023/06/29 04:44:01;;;;;;;34.25;23.60;;;19.40;99.90;;;;;;4742921;30;20056;-89
2023/06/29 04:46:28;;;;;;;33.25;23.08;;;19.40;99.90;;;;;;4759808;30;20059;-88
2023/06/29 04:48:56;;;;;;;36.13;25.17;;;19.40;99.90;;;;;;4760827;30;20084;-88
2023/06/29 04:51:27;;;;;;;33.60;23.80;;;19.40;99.90;;;;;;4760924;30;20032;-89
2023/06/29 04:53:57;;;;;;;33.20;23.92;;;19.40;99.90;;;;;;4746455;30;20040;-89
2023/06/29 04:56:23;;;;;;;36.17;23.95;;;19.40;99.90;;;;;;4745930;30;20047;-90
2023/06/29 04:58:51;;;;;;;32.72;23.92;;;19.40;99.90;;;;;;4729025;30;20044;-90
2023/06/29 05:01:17;;;;;;;34.95;24.55;;;19.40;99.90;;;;;;4751322;30;20035;-91
2023/06/29 05:03:43;;;;;;;33.58;24.63;;;19.40;99.90;;;;;;4746362;30;20046;-90
2023/06/29 05:06:09;;;;;;;34.15;24.42;;;19.40;99.90;;;;;;4745823;30;20042;-90
2023/06/29 05:08:38;;;;;;;33.40;25.00;;;19.40;99.90;;;;;;4743075;30;20115;-90
2023/06/29 05:11:07;;;;;;;38.17;24.85;;;19.40;99.90;;;;;;4772648;30;20480;-90
2023/06/29 05:13:35;;;;;;;32.30;25.15;;;19.40;99.90;;;;;;4728380;30;20387;-89
2023/06/29 05:16:07;;;;;;;35.38;25.60;;;19.40;99.90;;;;;;4742807;30;20047;-89
2023/06/29 05:18:36;;;;;;;32.88;24.20;;;19.40;99.90;;;;;;4772181;30;20449;-88
2023/06/29 05:51:46;;;;;;;33.10;23.60;;;19.40;99.90;;;;;;4742174;30;20044;-87
2023/06/29 05:54:13;;;;;;;32.25;22.95;;;19.40;99.90;;;;;;4756685;30;20075;-87
2023/06/29 06:35:21;;;;;;;29.90;22.77;;;19.50;99.90;;;;;;4769117;29;20114;-89
2023/06/29 06:37:49;;;;;;;33.00;21.67;;;19.50;99.90;;;;;;4773377;30;20445;-89
2023/06/29 06:40:18;;;;;;;33.92;22.60;;;19.60;99.90;;;;;;4715714;30;20134;-89
2023/06/29 06:54:27;;;;;;;28.92;21.38;;;19.60;99.90;;;;;;4774809;30;20344;-89
2023/06/29 06:57:32;;;;;;;34.10;22.40;;;19.60;99.90;;;;;;4759013;30;20036;-89
2023/06/29 06:59:58;;;;;;;33.97;22.92;;;19.70;99.90;;;;;;4744442;30;20113;-89
2023/06/29 07:02:37;;;;;;;;;;;;;;;;;;;;;
2023/06/29 07:05:35;;;;;;;39.67;24.77;;;19.70;99.90;;;;;;4730435;30;20045;-89
2023/06/29 07:09:01;;;;;;;32.22;22.77;;;19.70;99.90;;;;;;4766180;30;20467;-89
2023/06/29 07:16:13;;;;;;;35.72;23.95;;;19.70;99.90;;;;;;4719034;30;20229;-87
2023/06/29 07:19:11;;;;;;;36.88;24.70;;;19.70;99.90;;;;;;4717091;30;20511;-88
2023/06/29 07:21:58;;;;;;;33.25;24.92;;;19.70;99.90;;;;;;4707734;30;20114;-88
2023/06/29 07:24:42;;;;;;;32.13;24.95;;;19.80;99.90;;;;;;4708070;30;20056;-88
2023/06/29 07:27:48;;;;;;;34.40;25.75;;;19.80;99.90;;;;;;4750808;30;20439;-89
2023/06/29 07:30:14;;;;;;;35.70;25.80;;;19.80;99.90;;;;;;4776230;30;20451;-88
2023/06/29 07:32:40;;;;;;;37.38;26.73;;;19.80;99.90;;;;;;4761132;30;20089;-88
2023/06/29 07:39:28;;;;;;;36.78;27.10;;;19.90;99.90;;;;;;4740430;30;20035;-87
2023/06/29 07:46:50;;;;;;;38.30;27.13;;;19.90;99.90;;;;;;4667375;30;20381;-88
2023/06/29 07:54:08;;;;;;;38.28;27.55;;;20.00;99.90;;;;;;4667501;30;20041;-88
2023/06/29 08:05:52;;;;;;;40.20;26.38;;;20.00;99.90;;;;;;4667325;30;20101;-88
2023/06/29 08:08:29;;;;;;;41.38;28.75;;;20.00;99.90;;;;;;4654603;30;20038;-89
2023/06/29 08:10:59;;;;;;;41.75;28.23;;;20.00;99.90;;;;;;4667056;30;20050;-89
2023/06/29 08:13:25;;;;;;;40.03;28.02;;;19.90;99.90;;;;;;4667398;30;20053;-88
2023/06/29 08:15:55;;;;;;;38.45;28.55;;;20.00;99.90;;;;;;4680704;30;20517;-88
2023/06/29 08:18:21;;;;;;;39.92;28.60;;;20.00;99.90;;;;;;4725422;30;20043;-88
2023/06/29 08:20:48;;;;;;;38.15;27.92;;;20.00;99.90;;;;;;4753664;30;20036;-88
2023/06/29 08:23:17;;;;;;;48.13;29.92;;;20.00;99.90;;;;;;4739721;30;20122;-88
2023/06/29 08:25:43;;;;;;;38.50;27.73;;;20.00;99.90;;;;;;4739650;30;20086;-88
2023/06/29 08:28:09;;;;;;;44.47;29.40;;;20.00;99.90;;;;;;4754188;30;20036;-88
2023/06/29 08:30:35;;;;;;;37.10;28.95;;;19.90;99.90;;;;;;4739979;30;20066;-88
2023/06/29 08:33:07;;;;;;;41.08;28.35;;;20.00;99.90;;;;;;4739245;30;20437;-88
2023/06/29 08:35:33;;;;;;;41.63;29.40;;;19.90;99.90;;;;;;4764788;29;20063;-89
2023/06/29 08:46:00;;;;;;;39.72;29.27;;;19.90;99.90;;;;;;4739953;30;20038;-88
2023/06/29 08:48:28;;;;;;;39.05;28.58;;;19.80;99.90;;;;;;4724569;30;20127;-87
2023/06/29 08:51:04;;;;;;;38.53;27.30;;;19.80;99.90;;;;;;4739307;30;20128;-87
2023/06/29 08:53:31;;;;;;;40.20;27.98;;;19.70;99.90;;;;;;4725188;30;20407;-87
2023/06/29 10:25:12;;;;;;;53.00;37.58;;;20.10;99.90;;;;;;4741904;30;20127;-87
2023/06/29 10:27:39;;;;;;;52.83;38.90;;;20.10;99.90;;;;;;4726819;30;20325;-88
2023/06/29 11:12:19;;;;;;;36.95;29.92;;;20.70;99.90;;;;;;4756686;30;20118;-88
2023/06/29 11:19:42;;;;;;;39.50;30.50;;;20.80;99.90;;;;;;4756642;30;20497;-87
2023/06/29 11:26:23;;;;;;;40.33;30.35;;;20.90;99.90;;;;;;4756018;30;20112;-87
2023/06/29 11:29:00;;;;;;;;;;;;;;;;;;;;;
2023/06/29 11:36:12;;;;;;;38.70;29.15;;;21.10;99.90;;;;;;4756579;30;20031;-88
2023/06/29 11:43:06;;;;;;;36.40;27.55;;;21.40;99.90;;;;;;4756442;30;20425;-88
2023/06/29 11:49:18;;;;;;;35.35;27.77;;;21.50;99.90;;;;;;4740857;30;20039;-88
2023/06/29 11:51:44;;;;;;;36.80;27.92;;;21.50;99.90;;;;;;4755433;30;20036;-87
2023/06/29 11:54:22;;;;;;;34.75;28.25;;;21.60;99.90;;;;;;4755327;30;20430;-87
2023/06/29 11:57:36;;;;;;;34.75;26.70;;;21.60;99.90;;;;;;4740093;30;20429;-87
2023/06/29 12:00:07;;;;;;;40.42;28.33;;;21.60;99.90;;;;;;4769386;30;20044;-87
2023/06/29 12:03:18;;;;;;;35.15;27.75;;;21.70;99.90;;;;;;4737836;30;20090;-87
2023/06/29 12:10:24;;;;;;;37.38;28.30;;;21.80;99.90;;;;;;4721869;30;20033;-87
2023/06/29 12:12:58;;;;;;;35.47;27.70;;;21.90;99.90;;;;;;4707366;30;20165;-87
2023/06/29 12:15:30;;;;;;;34.65;26.15;;;22.00;99.90;;;;;;4722646;30;20037;-87
2023/06/29 12:22:00;;;;;;;39.97;26.48;;;22.20;99.90;;;;;;4736363;30;20190;-88
2023/06/29 12:24:26;;;;;;;37.50;27.77;;;22.40;99.90;;;;;;4706946;30;20503;-88
2023/06/29 12:31:12;;;;;;;37.63;28.20;;;22.50;99.90;;;;;;4721843;30;20044;-88
2023/06/29 12:38:15;;;;;;;40.58;28.85;;;22.50;99.90;;;;;;4755413;30;20032;-88
2023/06/29 12:44:45;;;;;;;44.13;29.08;;;22.20;99.90;;;;;;4684524;30;20042;-87
2023/06/29 12:47:11;;;;;;;43.00;30.50;;;22.10;99.90;;;;;;4710621;30;20314;-87
2023/06/29 12:49:40;;;;;;;39.50;29.20;;;22.10;99.90;;;;;;4740085;30;20040;-87
2023/06/29 12:52:07;;;;;;;45.90;30.67;;;22.00;99.90;;;;;;4739513;30;20399;-88
2023/06/29 12:54:33;;;;;;;49.15;32.58;;;21.90;99.90;;;;;;4739666;30;20059;-87
2023/06/29 12:57:01;;;;;;;48.65;31.05;;;21.80;99.90;;;;;;4753918;30;20078;-87
2023/06/29 12:59:30;;;;;;;43.25;30.85;;;21.80;99.90;;;;;;4761050;30;20067;-88
2023/06/29 13:02:10;;;;;;;49.15;33.15;;;21.70;99.90;;;;;;4746278;30;20455;-88
2023/06/29 13:04:56;;;;;;;50.63;31.92;;;21.60;99.90;;;;;;4758836;30;20039;-88
2023/06/29 13:07:27;;;;;;;48.50;33.72;;;21.50;99.90;;;;;;4744366;30;20475;-88
2023/06/29 13:09:53;;;;;;;53.53;35.90;;;21.50;99.90;;;;;;4745727;30;20055;-88
2023/06/29 13:12:24;;;;;;;57.95;37.38;;;21.40;99.90;;;;;;4731032;30;20044;-88
2023/06/29 13:14:55;;;;;;;57.17;37.15;;;21.30;99.90;;;;;;4741824;30;20441;-88
2023/06/29 13:17:24;;;;;;;64.88;38.45;;;21.10;99.90;;;;;;4741936;30;20380;-88
2023/06/29 13:19:53;;;;;;;61.90;39.38;;;21.00;99.90;;;;;;4738248;30;20044;-87
2023/06/29 13:22:22;;;;;;;64.75;38.80;;;20.90;99.90;;;;;;4759449;30;20092;-87
2023/06/29 13:24:49;;;;;;;64.35;38.78;;;20.80;99.90;;;;;;4745035;30;20044;-87
2023/06/29 13:27:15;;;;;;;60.15;39.28;;;20.70;99.90;;;;;;4745343;30;20028;-87
2023/06/29 13:29:42;;;;;;;63.85;39.53;;;20.70;99.90;;;;;;4745236;30;20332;-87
2023/06/29 13:32:08;;;;;;;68.10;39.50;;;20.60;99.90;;;;;;4759648;30;20035;-88
2023/06/29 13:34:34;;;;;;;64.60;40.92;;;20.70;99.90;;;;;;4730263;30;20459;-87
2023/06/29 13:37:06;;;;;;;64.78;40.83;;;20.70;99.90;;;;;;4759598;30;20046;-87
2023/06/29 13:39:43;;;;;;;64.95;40.58;;;20.60;99.90;;;;;;4742777;30;20044;-87
2023/06/29 13:42:15;;;;;;;62.97;41.95;;;20.50;99.90;;;;;;4756685;30;20071;-87
2023/06/29 13:44:42;;;;;;;62.25;39.85;;;20.40;99.90;;;;;;4728446;30;20429;-88
2023/06/29 13:47:08;;;;;;;62.88;39.78;;;20.40;99.90;;;;;;4713089;30;20310;-87
2023/06/29 13:49:34;;;;;;;55.10;36.20;;;20.40;99.90;;;;;;4751048;30;20455;-87
2023/06/29 13:52:03;;;;;;;48.20;33.22;;;20.30;99.90;;;;;;4759684;30;20414;-87
2023/06/29 13:54:29;;;;;;;44.05;29.75;;;20.20;99.90;;;;;;4730343;30;20097;-88
2023/06/29 13:56:55;;;;;;;40.58;28.67;;;20.20;99.90;;;;;;4744981;30;20036;-88
2023/06/29 13:59:21;;;;;;;39.60;26.23;;;20.20;99.90;;;;;;4759488;30;20111;-88
2023/06/29 14:01:47;;;;;;;36.90;23.25;;;20.10;99.90;;;;;;4730228;30;20403;-88
2023/06/29 14:04:14;;;;;;;34.15;23.67;;;20.10;99.90;;;;;;4744942;30;20046;-87
2023/06/29 14:06:46;;;;;;;27.80;20.40;;;20.10;99.90;;;;;;4744769;30;20368;-87
2023/06/29 14:09:13;;;;;;;19.48;14.40;;;20.10;99.90;;;;;;4772938;30;20378;-88
2023/06/29 14:11:40;;;;;;;10.23;7.80;;;20.10;99.90;;;;;;4744417;30;20039;-87
2023/06/29 14:14:09;;;;;;;8.07;4.90;;;20.00;99.90;;;;;;4774798;30;20429;-87
2023/06/29 14:16:35;;;;;;;6.20;4.00;;;19.90;99.90;;;;;;4744366;30;20441;-87
2023/06/29 14:19:02;;;;;;;5.40;2.88;;;19.90;99.90;;;;;;4758481;30;20031;-87
2023/06/29 14:21:28;;;;;;;5.28;2.70;;;19.80;99.90;;;;;;4774588;30;20088;-87
2023/06/29 14:23:57;;;;;;;5.82;2.65;;;19.70;99.90;;;;;;4716307;30;20073;-87
2023/06/29 14:26:28;;;;;;;6.30;3.30;;;19.70;99.90;;;;;;4774970;30;20036;-88
2023/06/29 14:28:56;;;;;;;6.47;2.30;;;19.70;99.90;;;;;;4744731;30;20142;-87
2023/06/29 14:31:22;;;;;;;7.15;3.10;;;19.60;99.90;;;;;;4729906;30;20035;-87
2023/06/29 14:33:48;;;;;;;5.20;2.40;;;19.40;99.90;;;;;;4744276;30;20345;-87
2023/06/29 14:36:14;;;;;;;5.68;2.47;;;19.40;99.90;;;;;;4715473;30;20127;-87
2023/06/29 14:38:40;;;;;;;8.13;2.67;;;19.40;99.90;;;;;;4744279;30;20371;-87
2023/06/29 14:41:06;;;;;;;10.20;4.32;;;19.40;99.90;;;;;;4729778;30;20476;-88
2023/06/29 14:43:32;;;;;;;4.75;2.00;;;19.30;99.90;;;;;;4758701;30;20124;-87
2023/06/29 14:45:58;;;;;;;5.15;2.00;;;19.20;99.90;;;;;;4744055;30;20042;-89
2023/06/29 14:48:26;;;;;;;6.03;1.90;;;19.20;99.90;;;;;;4729987;30;20039;-88
2023/06/29 14:50:53;;;;;;;6.78;1.95;;;19.20;99.90;;;;;;4729720;30;20039;-86
2023/06/29 14:53:20;;;;;;;8.85;2.60;;;19.20;99.90;;;;;;4743841;30;20119;-88
2023/06/29 14:56:08;;;;;;;9.30;4.65;;;19.20;99.90;;;;;;4729629;30;20048;-88
2023/06/29 14:58:37;;;;;;;11.82;8.13;;;19.10;99.90;;;;;;4744083;30;20060;-87
2023/06/29 15:01:03;;;;;;;10.40;5.90;;;19.00;99.90;;;;;;4758742;30;20043;-87
2023/06/29 15:03:32;;;;;;;11.35;6.50;;;19.00;99.90;;;;;;4729525;30;20050;-87
2023/06/29 15:06:34;;;;;;;5.70;2.30;;;19.00;99.90;;;;;;4729740;30;20028;-87
2023/06/29 15:14:01;;;;;;;7.97;3.60;;;18.90;99.90;;;;;;4774350;30;20510;-87
2023/06/29 15:16:29;;;;;;;7.22;2.67;;;18.90;99.90;;;;;;4743766;30;20051;-87
2023/06/29 15:18:55;;;;;;;7.55;3.30;;;18.90;99.90;;;;;;4743526;30;20392;-87
2023/06/29 15:21:21;;;;;;;6.28;2.47;;;18.80;99.90;;;;;;4728882;30;20075;-87
2023/06/29 15:23:47;;;;;;;4.13;1.98;;;18.90;99.90;;;;;;4743686;30;20057;-87
2023/06/29 15:26:12;;;;;;;4.72;1.50;;;18.80;99.90;;;;;;4758117;30;20032;-87
2023/06/29 15:28:38;;;;;;;2.97;1.20;;;18.80;99.90;;;;;;4728745;30;20039;-87
2023/06/29 15:31:04;;;;;;;5.82;1.40;;;18.70;99.90;;;;;;4728606;30;20353;-88
2023/06/29 15:33:30;;;;;;;6.20;1.58;;;18.70;99.90;;;;;;4757917;30;20044;-87
2023/06/29 15:35:56;;;;;;;6.60;1.38;;;18.60;99.90;;;;;;4757543;30;20060;-86
2023/06/29 15:38:22;;;;;;;5.30;1.40;;;18.60;99.90;;;;;;4728198;30;20126;-86
2023/06/29 15:40:48;;;;;;;5.53;1.40;;;18.50;99.90;;;;;;4743097;30;20524;-88
2023/06/29 15:43:17;;;;;;;5.10;1.67;;;18.50;99.90;;;;;;4743414;30;20146;-86
2023/06/29 15:45:43;;;;;;;4.07;1.50;;;18.50;99.90;;;;;;4757738;30;20060;-86
2023/06/29 15:48:09;;;;;;;3.88;1.20;;;18.50;99.90;;;;;;4742822;30;20111;-88
2023/06/29 15:50:35;;;;;;;4.30;1.55;;;18.40;99.90;;;;;;4728056;30;20185;-87
2023/06/29 15:53:01;;;;;;;4.65;1.27;;;18.40;99.90;;;;;;4742623;30;20047;-88
2023/06/29 15:55:27;;;;;;;4.03;1.05;;;18.30;99.90;;;;;;4757794;30;20046;-87
2023/06/29 15:57:54;;;;;;;2.85;0.90;;;18.20;99.90;;;;;;4757798;30;20364;-86
2023/06/29 16:00:20;;;;;;;4.47;1.38;;;18.20;99.90;;;;;;4728182;30;20606;-86
2023/06/29 16:02:47;;;;;;;7.35;2.25;;;18.10;99.90;;;;;;4757421;30;20040;-86
2023/06/29 16:05:15;;;;;;;7.53;2.88;;;18.10;99.90;;;;;;4742822;30;20040;-87
2023/06/29 16:07:44;;;;;;;5.15;1.50;;;18.10;99.90;;;;;;4728317;30;20302;-87
2023/06/29 16:10:12;;;;;;;8.50;1.92;;;18.00;99.90;;;;;;4740478;30;20272;-86
2023/06/29 16:12:38;;;;;;;7.72;2.60;;;18.00;99.90;;;;;;4754259;30;20040;-86
2023/06/29 16:15:05;;;;;;;7.57;2.00;;;18.00;99.90;;;;;;4725270;30;20430;-86
2023/06/29 16:17:36;;;;;;;5.63;1.80;;;18.00;99.90;;;;;;4768998;30;20097;-88
2023/06/29 16:20:02;;;;;;;5.97;2.00;;;18.00;99.90;;;;;;4739588;30;20082;-87
2023/06/29 16:22:30;;;;;;;4.35;1.40;;;18.00;99.90;;;;;;4768819;30;20040;-87
2023/06/29 16:24:59;;;;;;;6.25;2.67;;;17.90;99.90;;;;;;4753997;30;20032;-89
2023/06/29 16:27:25;;;;;;;8.40;5.30;;;17.90;99.90;;;;;;4738593;30;20091;-87
2023/06/29 16:29:54;;;;;;;8.00;4.32;;;17.90;99.90;;;;;;4753736;30;20036;-87
2023/06/29 16:32:20;;;;;;;5.93;2.70;;;17.90;99.90;;;;;;4739279;30;20130;-87
2023/06/29 16:34:46;;;;;;;5.65;2.00;;;17.90;99.90;;;;;;4738822;30;20142;-87
2023/06/29 16:37:12;;;;;;;3.97;1.88;;;17.90;99.90;;;;;;4768552;30;20067;-87
2023/06/29 16:39:38;;;;;;;4.28;1.70;;;17.90;99.90;;;;;;4739005;30;20437;-87
2023/06/29 16:42:07;;;;;;;7.80;1.83;;;17.90;99.90;;;;;;4754587;30;20067;-87
2023/06/29 16:44:35;;;;;;;5.13;1.60;;;17.90;99.90;;;;;;4761007;30;20032;-87
2023/06/29 16:47:01;;;;;;;4.90;1.63;;;17.80;99.90;;;;;;4745348;30;20032;-88
2023/06/29 16:49:28;;;;;;;7.32;1.95;;;17.80;99.90;;;;;;4731489;30;20093;-87
2023/06/29 16:51:59;;;;;;;7.47;1.90;;;17.80;99.90;;;;;;4761061;30;20043;-88
2023/06/29 16:54:25;;;;;;;4.90;1.60;;;17.80;99.90;;;;;;4746132;30;20039;-88
2023/06/29 16:57:33;;;;;;;4.80;1.25;;;17.80;99.90;;;;;;4760932;30;20043;-89
2023/06/29 16:59:59;;;;;;;5.32;1.25;;;17.90;99.90;;;;;;4745896;30;20043;-92
2023/06/29 17:02:28;;;;;;;5.00;1.70;;;17.70;99.90;;;;;;4745837;30;20043;-89
2023/06/29 17:05:00;;;;;;;4.78;1.60;;;17.70;99.90;;;;;;4760886;30;20038;-89
2023/06/29 17:21:39;;;;;;;6.22;2.00;;;17.60;99.90;;;;;;4784344;29;20471;-90
2023/06/29 17:24:05;;;;;;;5.70;2.20;;;17.60;99.90;;;;;;4757378;30;20066;-89
2023/06/29 17:26:31;;;;;;;5.57;1.90;;;17.60;99.90;;;;;;4742934;30;20086;-89
2023/06/29 17:28:58;;;;;;;5.97;1.85;;;17.60;99.90;;;;;;4757966;30;20405;-89
2023/06/29 17:31:29;;;;;;;8.75;2.47;;;17.60;99.90;;;;;;4728621;30;20044;-89
2023/06/29 18:19:33;;;;;;;6.10;1.50;;;17.40;99.90;;;;;;4757993;30;20024;-89
2023/06/29 18:45:56;;;;;;;4.95;1.40;;;17.30;99.90;;;;;;4761343;30;20128;-88
2023/06/29 18:48:32;;;;;;;5.20;1.55;;;17.20;99.90;;;;;;4732784;30;20124;-89
2023/06/29 18:51:07;;;;;;;5.15;1.48;;;17.20;99.90;;;;;;4732530;30;20036;-87
2023/06/29 18:53:33;;;;;;;6.43;1.55;;;17.20;99.90;;;;;;4745990;30;20044;-88
2023/06/29 18:56:01;;;;;;;7.10;1.98;;;17.20;99.90;;;;;;4760456;30;20048;-88
2023/06/29 18:58:29;;;;;;;7.32;1.95;;;17.30;99.90;;;;;;4719987;30;20067;-88
2023/06/29 19:00:55;;;;;;;7.60;2.00;;;17.30;99.90;;;;;;4731232;30;20440;-88
2023/06/29 19:03:22;;;;;;;8.32;1.88;;;17.30;99.90;;;;;;4746176;30;20047;-88
2023/06/29 19:05:59;;;;;;;8.25;2.28;;;17.30;99.90;;;;;;4747600;30;20036;-88